1974 Tropical Cyclone FIONA-GWENDA:GWEND (1974006S15125)


IBTrACS version v04r00. Visit IBTrACS website for data access.
Please direct all questions to the IBTrACS Q and A forum

Storm track - Intensity - Wind Radii - Intensity Data - Source Data - All data

Summary Information

Storm ID 1974006S15125
Start Jan 6 01Z
Landfall Jan 8 12Z
Max Intensity 55 kt (Jan 8 06Z), 982 mb (Jan 8 06Z)
End Jan 14 00Z
ATCF IDs ,SH141974
Track status Best track data.

Storm track plot

Map of storm track

Intensity plots

Map of storm track

Radial wind information

No radial wind information for this storm


Position and Intensity Table

BASIN ISO_TIME_________ NATURE LAT LON WMO WIND WMO PRES BOM WIND BOM PRES DS824 WIND DS824 PRES NEUMANN WIND NEUMANN PRES
degrees north degrees east kts mb kts mb kts mb kts mb
SI 1974-01-06 01:00:00 NR -14.50 125.30 30 997 30 997
SI 03:00:00 NR -14.50 125.11 30 996
SI 04:00:00 NR -14.50 125.00 30 996 30 996
SI 06:00:00 TS -14.50 124.72 30 995 40 995
SI 07:00:00 TS -14.50 124.60 30 995 30 995 39 995
SI 09:00:00 TS -14.49 124.40 30 995 37 995
SI 10:00:00 TS -14.49 124.30 30 995 30 995 36 995
SI 12:00:00 TS -14.50 124.10 30 995 35 996
SI 13:00:00 TS -14.51 124.00 30 996 30 996 35 995
SI 15:00:00 TS -14.57 123.79 30 996 37 995
SI 16:00:00 TS -14.61 123.69 30 996 30 996 38 994
SI 18:00:00 TS -14.68 123.50 33 994 40 994
SI 19:00:00 TS -14.72 123.41 35 994 35 994 40 994
SI 21:00:00 TS -14.78 123.26 35 994 40 994
SI 22:00:00 TS -14.82 123.20 35 994 35 994 40 994
SI 1974-01-07 00:00:00 TS -14.78 123.08 38 994 40 994
SI 01:00:00 TS -14.75 123.03 40 994 40 994 40 993
SI 03:00:00 TS -14.78 122.95 40 992 42 992
SI 04:00:00 TS -14.79 122.91 40 992 40 992 43 991
SI 06:00:00 TS -14.87 122.87 40 990 45 990 45 992
SI 07:00:00 TS -14.92 122.87 40 990 40 990 45 990 45 991
SI 09:00:00 TS -15.00 122.86 40 990 45 990 45 991
SI 10:00:00 TS -15.05 122.87 40 990 40 990 45 990 45 990
SI 12:00:00 TS -15.13 122.87 43 990 45 990 45 990
SI 13:00:00 TS -15.16 122.86 45 990 45 990 45 989 45 989
SI 15:00:00 TS -15.23 122.86 45 989 47 989 47 989
SI 16:00:00 TS -15.27 122.86 45 989 45 989 48 988 48 989
SI 18:00:00 TS -15.36 122.87 48 988 50 988 50 989
SI 19:00:00 TS -15.41 122.88 50 988 50 988 50 988 50 988
SI 21:00:00 TS -15.49 122.92 50 988 50 988 50 988
SI 22:00:00 TS -15.54 122.94 50 988 50 988 50 988 50 988
SI 1974-01-08 00:00:00 TS -15.65 122.97 50 988 50 988 50 988
SI 01:00:00 TS -15.72 122.97 50 988 50 988 50 987 50 987
SI 03:00:00 TS -15.85 122.97 50 985 52 985 52 986
SI 04:00:00 TS -15.92 122.97 50 985 50 985 53 984 53 985
SI 06:00:00 TS -16.06 122.98 53 982 55 982 55 984
SI 07:00:00 TS -16.13 122.98 55 982 55 982 55 982 55 983
SI 09:00:00 TS -16.28 122.99 55 982 55 983 55 983
SI 10:00:00 TS -16.36 123.00 55 983 55 983 55 983 55 983
SI 12:00:00 TS -16.51 123.02 51 983 55 984 55 983
SI 13:00:00 TS -16.57 123.03 50 984 50 984 55 984 55 983
SI 15:00:00 TS -16.71 123.06 46 984 55 984 55 984
SI 16:00:00 TS -16.77 123.07 45 985 45 985 55 984 55 984
SI 18:00:00 TS -16.90 123.10 38 985 55 985 55 985
SI 19:00:00 TS -16.96 123.12 35 985 35 985 54 985 54 985
SI 21:00:00 TS -17.07 123.17 35 985 52 986 52 986
SI 22:00:00 TS -17.13 123.18 35 986 35 986 51 986 51 986
SI 1974-01-09 00:00:00 TS -17.25 123.17 31 987 50 988 50 987
SI 01:00:00 TS -17.33 123.13 30 988 30 988 50 988 49 987
SI 03:00:00 TS -17.50 123.01 30 988 50 988 47 987
SI 04:00:00 TS -17.58 122.92 30 988 30 988 50 988 46 987
SI 06:00:00 TS -17.74 122.71 30 988 50 988 45 988
SI 07:00:00 TS -17.82 122.59 30 988 30 988 49 988 43 988
SI 09:00:00 TS -17.96 122.35 30 988 47 989 40 988
SI 10:00:00 TS -18.02 122.21 30 989 30 989 46 989 38 988
SI 12:00:00 TS -18.10 121.94 30 989 45 990 35 989
SI 13:00:00 TS -18.12 121.80 30 990 30 990 45 990 36 989
SI 15:00:00 TS -18.16 121.49 30 990 45 991 40 990
SI 16:00:00 TS -18.16 121.33 30 991 30 991 45 991 41 990
SI 18:00:00 TS -18.16 121.00 36 991 45 992 45 991
SI 19:00:00 TS -18.16 120.83 40 992 40 992 44 992 44 991
SI 21:00:00 TS -18.16 120.48 40 992 42 993 42 992
SI 22:00:00 TS -18.15 120.30 40 993 40 993 41 993 41 992
SI 1974-01-10 00:00:00 TS -18.15 119.95 40 993 40 994 40 993
SI 01:00:00 TS -18.15 119.78 40 994 40 994 40 993 40 992
SI 03:00:00 TS -18.13 119.47 40 992 42 992 42 992
SI 04:00:00 TS -18.13 119.31 40 992 40 992 43 991 43 992
SI 06:00:00 TS -18.14 118.98 40 990 45 990 45 992
SI 07:00:00 TS -18.16 118.82 40 990 40 990 45 990 45 991
SI 09:00:00 TS -18.18 118.48 40 990 45 990 45 991
SI 10:00:00 TS -18.19 118.32 40 990 40 990 45 990 45 990
SI 12:00:00 TS -18.24 117.98 40 990 45 990 45 990
SI 13:00:00 TS -18.28 117.81 40 990 40 990 45 989 45 989
SI 15:00:00 TS -18.35 117.48 46 989 47 989 47 989
SI 16:00:00 TS -18.40 117.30 50 989 50 989 48 988 48 988
SI 18:00:00 TS -18.50 116.95 50 988 50 988 50 988
SI 19:00:00 TS -18.57 116.76 50 988 50 988 50 988 50 988
SI 21:00:00 TS -18.73 116.38 50 988 50 988 50 988
SI 22:00:00 TS -18.81 116.18 50 988 50 988 50 988 50 988
SI 1974-01-11 00:00:00 TS -18.92 115.82 50 988 50 988 50 988
SI 01:00:00 TS -18.94 115.64 50 988 50 988 50 988 50 988
SI 03:00:00 TS -18.98 115.25 50 988 50 988 50 988
SI 04:00:00 TS -18.99 115.06 50 988 50 988 50 988 50 988
SI 06:00:00 TS -19.00 114.67 50 988 50 988 50 989
SI 07:00:00 TS -19.01 114.47 50 988 50 988 49 988 49 989
SI 09:00:00 TS -19.04 114.09 46 989 47 990 47 990
SI 10:00:00 TS -19.05 113.91 45 990 45 990 46 990 46 990
SI 12:00:00 TS -19.05 113.54 41 991 45 992 45 991
SI 13:00:00 TS -19.05 113.37 40 992 40 992 43 992 44 991
SI 15:00:00 TS -19.05 113.03 36 993 40 994 42 992
SI 16:00:00 TS -19.04 112.86 35 994 35 994 38 994 41 992
SI 18:00:00 TS -19.01 112.52 31 995 35 996 40 993
SI 19:00:00 TS -18.99 112.35 30 996 30 996 35 996 39 993
SI 21:00:00 TS -18.95 111.99 30 996 35 996 37 994
SI 22:00:00 TS -18.92 111.80 30 997 30 997 35 996 36 994
SI 1974-01-12 00:00:00 TS -18.85 111.40 30 997 35 997 35 996
SI 01:00:00 TS -18.80 111.19 30 997 30 997 35 997 35 996
SI 03:00:00 TS -18.69 110.73 30 997 35 997 35 996
SI 04:00:00 TS -18.63 110.50 30 997 30 997 35 997 35 996
SI 06:00:00 TS -18.50 110.03 30 997 35 997 35 997
SI 07:00:00 TS -18.43 109.79 30 997 30 997 34 997 35 997
SI 09:00:00 TS -18.31 109.33 30 997 32 998 35 997
SI 10:00:00 TS -18.24 109.09 30 998 30 998 31 998 35 997
SI 12:00:00 TS -18.10 108.59 30 998 30 999 35 998
SI 13:00:00 TS -18.02 108.34 30 999 30 999 30 999 34 998
SI 15:00:00 TS -17.85 107.83 30 999 30 999 32 999
SI 16:00:00 TS -17.76 107.57 30 999 30 999 30 999 31 999
SI 18:00:00 TS -17.58 107.05 26 999 30 1000 30 1000
SI 19:00:00 TS -17.50 106.79 25 1000 25 1000 29 1000 29 1000
SI 21:00:00 TS -17.32 106.26 25 1000 27 1001 27 1000
SI 22:00:00 TS -17.23 105.98 25 1001 25 1001 26 1001 26 1000
SI 1974-01-13 00:00:00 TS -17.05 105.50 25 1001 25 1002 25 1001
SI 01:00:00 TS -16.95 105.24 25 1002 25 1002
SI 03:00:00 TS -16.83 104.91
SI 06:00:00 TS -16.68 104.62
SI 09:00:00 TS -16.49 104.49
SI 12:00:00 TS -16.30 104.50
SI 15:00:00 TS -16.11 104.56
SI 18:00:00 TS -15.91 104.72
SI 21:00:00 TS -15.70 104.94
SI 1974-01-14 00:00:00 TS -15.50 105.20

Source Information

Agency Information
USA bsh141974.txt
TOKYO
CMA
HKO
NEWDELHI
REUNION
BOM IDCKMSTM0S.csv:Line=8558:FIONA-GWENDA
NADI
WELLINGTON
DS824 aus_area.dat:514:FIONA-GWENDA
TD9636 cons_worldwide_trop_cyclone_18710101-19891231-006:Line=9449
TD9635
NEUMANN tracks.sh:Storm=391:FIONA/GWEND:BSH1474:BM433
MLC

All available IBTrACS Data

SEASON BASIN SUBBASIN ISO_TIME_________ NATURE LAT LON WMO WIND WMO PRES WMO AGENCY DIST2LAND LANDFALL IFLAG USA AGENCY USA ATCF_ID USA LAT USA LON USA SSHS BOM LAT BOM LON BOM TYPE BOM WIND BOM PRES BOM TNUM BOM CI DS824 LAT DS824 LON DS824 STAGE DS824 WIND DS824 PRES TD9636 LAT TD9636 LON TD9636 STAGE NEUMANN LAT NEUMANN LON NEUMANN CLASS NEUMANN WIND NEUMANN PRES BOM GUST BOM GUST_PER STORM SPEED STORM DIR
Year degrees north degrees east kts mb km km degrees north degrees east 1 degrees north degrees east kts mb 1 1 degrees north degrees east kts mb degrees north degrees east degrees north degrees east kts mb kts second kts degrees
1974 SI WA 1974-01-06 01:00:00 NR -14.50 125.30 30 997 bom 11 11 ______O_______ -1 -14.50 125.30 20 30 997 2.00 2.00 5 270
1974 SI WA 03:00:00 NR -14.50 125.11 15 15 ______P_______ -1 -14.50 125.11 20 30 996 6 270
1974 SI WA 04:00:00 NR -14.50 125.00 30 996 bom 24 24 ______O_______ -1 -14.50 125.00 20 30 996 2.00 8 270
1974 SI WA 06:00:00 TS -14.50 124.72 54 54 ______P__O____ -1 -14.50 124.73 20 30 995 -14.50 124.70 TC 40 995 8 270
1974 SI WA 07:00:00 TS -14.50 124.60 30 995 bom 65 65 ______O__P____ -1 -14.50 124.60 20 30 995 2.00 -14.49 124.60 TC 39 995 6 272
1974 SI WA 09:00:00 TS -14.49 124.40 86 86 ______P__P____ -1 -14.50 124.39 20 30 995 -14.48 124.40 TC 37 995 6 271
1974 SI WA 10:00:00 TS -14.49 124.30 30 995 bom 95 95 ______O__P____ -1 -14.50 124.30 20 30 995 2.50 -14.48 124.30 TC 36 995 6 269
1974 SI WA 12:00:00 TS -14.50 124.10 108 108 ______P__O____ -1 -14.49 124.10 20 30 995 -14.50 124.10 TC 35 996 6 266
1974 SI WA 13:00:00 TS -14.51 124.00 30 996 bom 116 116 ______O__P____ -1 -14.50 124.00 20 30 996 2.50 -14.52 123.99 TC 35 995 6 256
1974 SI WA 15:00:00 TS -14.57 123.79 126 126 ______P__P____ -1 -14.56 123.80 20 30 996 -14.59 123.79 TC 37 995 6 251
1974 SI WA 16:00:00 TS -14.61 123.69 30 996 bom 134 132 ______O__P____ -1 -14.60 123.70 20 30 996 2.50 -14.62 123.68 TC 38 994 6 249
1974 SI WA 18:00:00 TS -14.68 123.50 139 139 ______P__O____ -1 -14.67 123.49 20 33 994 -14.70 123.50 TC 40 994 6 249
1974 SI WA 19:00:00 TS -14.72 123.41 35 994 bom 147 147 ______O__P____ -1 -14.70 123.40 30 35 994 3.00 -14.73 123.42 TC 40 994 5 246
1974 SI WA 21:00:00 TS -14.78 123.26 148 148 ______P__P____ -1 -14.77 123.25 30 35 994 -14.80 123.27 TC 40 994 4 243
1974 SI WA 22:00:00 TS -14.82 123.20 35 994 bom 156 156 ______O__P____ -1 -14.80 123.20 30 35 994 3.00 -14.83 123.21 TC 40 994 3 272
1974 SI WA 1974-01-07 00:00:00 TS -14.78 123.08 165 165 O_____P__OO___ jtwc_sh SH141974 -14.50 123.00 -1 -14.87 123.13 30 38 994 -14.90 123.10 TC 40 994 -14.50 123.00 2 4 291
1974 SI WA 01:00:00 TS -14.75 123.03 40 994 bom 173 173 P_____O__PP___ SH141974 -14.53 122.96 -1 -14.90 123.10 30 40 994 3.00 3.00 -14.93 123.05 TC 40 993 -14.54 122.98 2 3 269
1974 SI WA 03:00:00 TS -14.78 122.95 178 178 P_____P__PP___ SH141974 -14.59 122.88 -1 -14.97 123.03 30 40 992 -15.00 122.97 TC 42 992 -14.63 122.93 2 2 252
1974 SI WA 04:00:00 TS -14.79 122.91 40 992 bom 178 168 P_____O__PP___ SH141974 -14.62 122.85 -1 -15.00 123.00 30 40 992 3.00 -15.03 122.94 TC 43 991 -14.67 122.91 2 2 216
1974 SI WA 06:00:00 TS -14.87 122.87 168 168 O_____P__OP_O_ jtwc_sh SH141974 -14.70 122.80 -1 -15.07 122.93 30 40 990 -15.10 122.90 TC 45 990 -14.76 122.87 2 -15.00 123.10 TC 45 992 3 195
1974 SI WA 07:00:00 TS -14.92 122.87 40 990 bom 168 159 P_____O__PP_P_ SH141974 -14.75 122.79 -1 -15.10 122.90 30 40 990 3.00 -15.13 122.89 TC 45 990 -14.80 122.85 2 -15.03 123.08 TC 45 991 3 0
1974 SI WA 09:00:00 TS -15.00 122.86 159 159 P_____P__PP_P_ SH141974 -14.85 122.78 -1 -15.17 122.89 30 40 990 -15.20 122.88 TC 45 990 -14.88 122.82 2 -15.09 123.04 TC 45 991 3 174
1974 SI WA 10:00:00 TS -15.05 122.87 40 990 bom 159 150 P_____O__PP_P_ SH141974 -14.90 122.79 -1 -15.20 122.90 30 40 990 3.00 -15.23 122.89 TC 45 990 -14.92 122.81 2 -15.12 123.03 TC 45 990 3 175
1974 SI WA 12:00:00 TS -15.13 122.87 150 140 O_____P__OO_O_ jtwc_sh SH141974 -15.00 122.80 -1 -15.27 122.90 30 43 990 -15.30 122.90 TC 45 990 -15.00 122.80 2 -15.20 123.00 TC 45 990 2 191
1974 SI WA 13:00:00 TS -15.16 122.86 45 990 bom 140 140 P_____O__PP_P_ SH141974 -15.04 122.80 -1 -15.30 122.90 30 45 990 3.00 -15.33 122.90 TC 45 989 -15.04 122.80 2 -15.24 122.99 TC 45 989 2 0
1974 SI WA 15:00:00 TS -15.23 122.86 140 132 P_____P__PP_P_ SH141974 -15.10 122.79 -1 -15.36 122.90 30 45 989 -15.39 122.89 TC 47 989 -15.11 122.80 2 -15.34 122.99 TC 47 989 2 0
1974 SI WA 16:00:00 TS -15.27 122.86 45 989 bom 132 123 P_____O__PP_P_ SH141974 -15.13 122.79 -1 -15.40 122.90 30 45 989 3.00 -15.43 122.89 TC 48 988 -15.14 122.81 2 -15.39 122.99 TC 48 989 3 0
1974 SI WA 18:00:00 TS -15.36 122.87 123 123 O_____P__OP_O_ jtwc_sh SH141974 -15.20 122.80 -1 -15.54 122.89 30 48 988 -15.50 122.90 TC 50 988 -15.22 122.83 2 -15.50 123.00 TC 50 989 3 168
1974 SI WA 19:00:00 TS -15.41 122.88 50 988 bom 123 111 P_____O__PP_P_ SH141974 -15.24 122.81 -1 -15.60 122.90 30 50 988 3.50 -15.54 122.91 TC 50 988 -15.26 122.84 2 -15.55 123.01 TC 50 988 3 160
1974 SI WA 21:00:00 TS -15.49 122.92 111 111 P_____P__PP_P_ SH141974 -15.34 122.85 -1 -15.66 122.97 30 50 988 -15.64 122.95 TC 50 988 -15.35 122.86 2 -15.64 123.05 TC 50 988 3 156
1974 SI WA 22:00:00 TS -15.54 122.94 50 988 bom 111 89 P_____O__PP_P_ SH141974 -15.39 122.87 -1 -15.70 123.00 30 50 988 3.50 -15.69 122.97 TC 50 988 -15.39 122.88 2 -15.69 123.07 TC 50 988 3 164
1974 SI WA 1974-01-08 00:00:00 TS -15.65 122.97 89 89 O_____P__OO_O_ jtwc_sh SH141974 -15.50 122.90 -1 -15.83 123.01 30 50 988 -15.80 123.00 TC 50 988 -15.50 122.90 2 -15.80 123.10 TC 50 988 4 174
1974 SI WA 01:00:00 TS -15.72 122.97 50 988 bom 89 78 P_____O__PP_P_ SH141974 -15.56 122.90 -1 -15.90 123.00 30 50 988 3.50 3.50 -15.86 123.01 TC 50 987 -15.56 122.91 2 -15.86 123.11 TC 50 987 4 0
1974 SI WA 03:00:00 TS -15.85 122.97 78 67 P_____P__PP_P_ SH141974 -15.68 122.90 -1 -16.03 123.00 30 50 985 -15.99 123.01 TC 52 985 -15.70 122.92 2 -15.99 123.11 TC 52 986 4 175
1974 SI WA 04:00:00 TS -15.92 122.97 50 985 bom 67 44 P_____O__PP_P_ SH141974 -15.75 122.90 -1 -16.10 123.00 30 50 985 3.50 -16.06 123.01 TC 53 984 -15.78 122.93 2 -16.06 123.11 TC 53 985 4 176
1974 SI WA 06:00:00 TS -16.06 122.98 44 44 O_____P__OP_O_ jtwc_sh SH141974 -15.90 122.90 -1 -16.23 123.00 30 53 982 -16.20 123.00 TC 55 982 -15.94 122.95 2 -16.20 123.10 TC 55 984 4 179
1974 SI WA 07:00:00 TS -16.13 122.98 55 982 bom 44 22 P_____O__PP_P_ SH141974 -15.98 122.91 -1 -16.30 123.00 30 55 982 4.00 -16.27 123.00 TC 55 982 -16.01 122.96 2 -16.27 123.10 TC 55 983 5 175
1974 SI WA 09:00:00 TS -16.28 122.99 22 22 P_____P__PP_P_ SH141974 -16.15 122.95 -1 -16.43 123.00 30 55 982 -16.40 122.99 TC 55 983 -16.17 122.97 2 -16.40 123.09 TC 55 983 5 0
1974 SI WA 10:00:00 TS -16.36 123.00 55 983 bom 11 0 P_____O__PP_P_ SH141974 -16.24 122.97 -1 -16.50 123.00 30 55 983 4.00 -16.47 122.99 TC 55 983 -16.25 122.98 2 -16.47 123.09 TC 55 983 4 0
1974 SI WA 12:00:00 TS -16.51 123.02 0 0 O_____P__OO_O_ jtwc_sh SH141974 -16.40 123.00 -1 -16.63 122.99 30 51 983 -16.60 123.00 TC 55 984 -16.40 123.00 2 -16.60 123.10 TC 55 983 4 173
1974 SI WA 13:00:00 TS -16.57 123.03 50 984 bom 0 0 P_____O__PP_P_ SH141974 -16.47 123.00 -1 -16.70 123.00 30 50 984 3.50 -16.67 123.01 TC 55 984 -16.46 123.03 2 -16.67 123.11 TC 55 983 4 169
1974 SI WA 15:00:00 TS -16.71 123.06 0 0 P_____P__PP_P_ SH141974 -16.61 123.00 -1 -16.83 123.07 30 46 984 -16.80 123.04 TC 55 984 -16.58 123.09 2 -16.80 123.14 TC 55 984 4 168
1974 SI WA 16:00:00 TS -16.77 123.07 45 985 bom 0 0 P_____O__PP_P_ SH141974 -16.68 123.00 -1 -16.90 123.10 30 45 985 -16.87 123.06 TC 55 984 -16.64 123.13 2 -16.87 123.16 TC 55 984 4 168
1974 SI WA 18:00:00 TS -16.90 123.10 0 0 O_____P__OP_O_ jtwc_sh SH141974 -16.80 123.00 -1 -17.03 123.10 30 38 985 -17.00 123.10 TC 55 985 -16.75 123.18 2 -17.00 123.20 TC 55 985 4 166
1974 SI WA 19:00:00 TS -16.96 123.12 35 985 bom 0 0 P_____O__PP_P_ SH141974 -16.85 123.03 -1 -17.10 123.10 30 35 985 -17.06 123.13 TC 54 985 -16.81 123.19 2 -17.07 123.23 TC 54 985 4 160
1974 SI WA 21:00:00 TS -17.07 123.17 0 0 P_____P__PP_P_ SH141974 -16.94 123.09 -1 -17.23 123.17 30 35 985 -17.19 123.18 TC 52 986 -16.92 123.20 2 -17.20 123.28 TC 52 986 4 160
1974 SI WA 22:00:00 TS -17.13 123.18 35 986 bom 0 0 P_____O__PP_P_ SH141974 -16.99 123.12 -1 -17.30 123.20 30 35 986 -17.26 123.20 TC 51 986 -16.98 123.18 2 -17.27 123.30 TC 51 986 89 89 4 0
1974 SI WA 1974-01-09 00:00:00 TS -17.25 123.17 0 0 O_____P__OO_O_ jtwc_sh SH141974 -17.10 123.10 -1 -17.43 123.21 30 31 987 -17.40 123.20 TC 50 988 -17.10 123.10 2 -17.40 123.30 TC 50 987 4 194
1974 SI WA 01:00:00 TS -17.33 123.13 30 988 bom 0 0 P_____O__PP_P_ SH141974 -17.17 123.05 -1 -17.50 123.20 20 30 988 -17.48 123.18 TC 50 988 -17.18 123.03 2 -17.47 123.28 TC 49 987 6 212
1974 SI WA 03:00:00 TS -17.50 123.01 0 0 P_____P__PP_P_ SH141974 -17.34 122.88 -1 -17.70 123.15 20 30 988 -17.66 123.10 TC 50 988 -17.35 122.83 2 -17.60 123.20 TC 47 987 6 218
1974 SI WA 04:00:00 TS -17.58 122.92 30 988 bom 0 0 P_____O__PP_P_ SH141974 -17.43 122.77 -1 -17.80 123.10 20 30 988 -17.74 123.05 TC 50 988 -17.43 122.71 2 -17.67 123.14 TC 46 987 8 230
1974 SI WA 06:00:00 TS -17.74 122.71 0 0 O_____P__OP_O_ jtwc_sh SH141974 -17.60 122.50 -1 -17.94 122.91 20 30 988 -17.90 122.90 TC 50 988 -17.60 122.44 2 -17.80 123.00 TC 45 988 8 233
1974 SI WA 07:00:00 TS -17.82 122.59 30 988 bom 0 0 P_____O__PP_P_ SH141974 -17.68 122.35 -1 -18.00 122.80 20 30 988 -17.97 122.83 TC 49 988 -17.68 122.29 2 -17.87 122.94 TC 43 988 8 238
1974 SI WA 09:00:00 TS -17.96 122.35 0 0 P_____P__PP_P_ SH141974 -17.84 122.02 -1 -18.15 122.60 20 30 988 -18.08 122.66 TC 47 989 -17.83 121.98 2 -18.02 122.80 TC 40 988 8 241
1974 SI WA 10:00:00 TS -18.02 122.21 30 989 bom 0 0 P_____O__PP_P_ SH141974 -17.90 121.84 -1 -18.20 122.50 20 30 989 -18.13 122.56 TC 46 989 -17.90 121.82 2 -18.09 122.72 TC 38 988 8 250
1974 SI WA 12:00:00 TS -18.10 121.94 30 30 O_____P__OO_O_ jtwc_sh SH141974 -18.00 121.50 -1 -18.20 122.32 20 30 989 -18.20 122.30 TC 45 990 -18.00 121.50 2 -18.20 122.50 TC 35 989 8 255
1974 SI WA 13:00:00 TS -18.12 121.80 30 990 bom 35 35 P_____O__PP_P_ SH141974 -18.02 121.36 -1 -18.20 122.20 20 30 990 2.50 -18.23 122.15 TC 45 990 -18.03 121.37 2 -18.24 122.37 TC 36 989 9 262
1974 SI WA 15:00:00 TS -18.16 121.49 46 46 P_____P__PP_P_ SH141974 -18.03 121.09 -1 -18.27 121.82 20 30 990 -18.27 121.79 TC 45 991 -18.06 121.09 2 -18.28 122.05 TC 40 990 9 265
1974 SI WA 16:00:00 TS -18.16 121.33 30 991 bom 61 61 P_____O__PP_P_ SH141974 -18.02 120.96 -1 -18.30 121.60 20 30 991 2.50 -18.29 121.60 TC 45 991 -18.07 120.96 2 -18.29 121.88 TC 41 990 9 270
1974 SI WA 18:00:00 TS -18.16 121.00 86 86 O_____P__OP_O_ jtwc_sh SH141974 -18.00 120.70 -1 -18.31 121.20 20 36 991 -18.30 121.20 TC 45 992 -18.06 120.68 2 -18.30 121.50 TC 45 991 10 270
1974 SI WA 19:00:00 TS -18.16 120.83 40 992 bom 104 104 P_____O__PP_P_ SH141974 -18.00 120.56 -1 -18.30 121.00 30 40 992 3.00 -18.31 121.00 TC 44 992 -18.05 120.54 2 -18.31 121.31 TC 44 991 10 270
1974 SI WA 21:00:00 TS -18.16 120.48 134 144 P_____P__PP_P_ SH141974 -18.00 120.26 -1 -18.30 120.60 30 40 992 -18.31 120.58 TC 42 993 -18.03 120.25 2 -18.31 120.90 TC 42 992 10 271
1974 SI WA 22:00:00 TS -18.15 120.30 40 993 bom 154 154 P_____O__PP_P_ SH141974 -18.00 120.11 -1 -18.30 120.40 30 40 993 3.00 -18.31 120.38 TC 41 993 -18.02 120.10 2 -18.31 120.70 TC 41 992 10 271
1974 SI WA 1974-01-10 00:00:00 TS -18.15 119.95 187 187 O_____P__OO_O_ jtwc_sh SH141974 -18.00 119.80 -1 -18.31 119.98 30 40 993 -18.30 120.00 TC 40 994 -18.00 119.80 2 -18.30 120.30 TC 40 993 10 271
1974 SI WA 01:00:00 TS -18.15 119.78 40 994 bom 202 202 P_____O__PP_P_ SH141974 -18.00 119.64 -1 -18.30 119.80 30 40 994 3.00 3.00 -18.30 119.84 TC 40 993 -18.00 119.64 2 -18.30 120.12 TC 40 992 9 272
1974 SI WA 03:00:00 TS -18.13 119.47 214 216 P_____P__PP_P_ SH141974 -17.99 119.31 -1 -18.22 119.53 30 40 992 -18.29 119.53 TC 42 992 -18.00 119.33 2 -18.29 119.78 TC 42 992 9 273
1974 SI WA 04:00:00 TS -18.13 119.31 40 992 bom 218 218 P_____O__PP_P_ SH141974 -17.99 119.14 -1 -18.20 119.40 30 40 992 3.00 -18.29 119.39 TC 43 991 -18.00 119.16 2 -18.29 119.62 TC 43 992 9 268
1974 SI WA 06:00:00 TS -18.14 118.98 223 213 O_____P__OP_O_ jtwc_sh SH141974 -18.00 118.80 -1 -18.26 119.07 30 40 990 -18.30 119.10 TC 45 990 -18.00 118.83 2 -18.30 119.30 TC 45 992 9 266
1974 SI WA 07:00:00 TS -18.16 118.82 40 990 bom 214 214 P_____O__PP_P_ SH141974 -18.01 118.63 -1 -18.30 118.90 30 40 990 3.00 -18.31 118.94 TC 45 990 -18.01 118.66 2 -18.31 119.13 TC 45 991 10 266
1974 SI WA 09:00:00 TS -18.18 118.48 221 221 P_____P__PP_P_ SH141974 -18.03 118.30 -1 -18.30 118.57 30 40 990 -18.33 118.61 TC 45 990 -18.03 118.32 2 -18.33 118.80 TC 45 991 10 266
1974 SI WA 10:00:00 TS -18.19 118.32 40 990 bom 228 228 P_____O__PP_P_ SH141974 -18.05 118.13 -1 -18.30 118.40 30 40 990 3.00 -18.35 118.45 TC 45 990 -18.05 118.15 2 -18.35 118.63 TC 45 990 10 262
1974 SI WA 12:00:00 TS -18.24 117.98 241 235 O_____P__OO_O_ jtwc_sh SH141974 -18.10 117.80 -1 -18.36 118.07 30 40 990 -18.40 118.10 TC 45 990 -18.10 117.80 2 -18.40 118.30 TC 45 990 10 260
1974 SI WA 13:00:00 TS -18.28 117.81 40 990 bom 237 232 P_____O__PP_P_ SH141974 -18.14 117.64 -1 -18.40 117.90 30 40 990 3.00 -18.42 117.92 TC 45 989 -18.14 117.63 2 -18.42 118.14 TC 45 989 10 257
1974 SI WA 15:00:00 TS -18.35 117.48 232 235 P_____P__PP_P_ SH141974 -18.23 117.31 -1 -18.46 117.57 30 46 989 -18.46 117.56 TC 47 989 -18.23 117.30 2 -18.48 117.81 TC 47 989 10 256
1974 SI WA 16:00:00 TS -18.40 117.30 50 989 bom 238 235 P_____O__PP_P_ SH141974 -18.29 117.14 -1 -18.50 117.40 30 50 989 3.50 -18.50 117.38 TC 48 988 -18.29 117.12 2 -18.51 117.64 TC 48 988 10 253
1974 SI WA 18:00:00 TS -18.50 116.95 235 223 O_____P__OP_O_ jtwc_sh SH141974 -18.40 116.80 -1 -18.61 117.01 30 50 988 -18.60 117.00 TC 50 988 -18.40 116.78 2 -18.60 117.30 TC 50 988 11 251
1974 SI WA 19:00:00 TS -18.57 116.76 50 988 bom 223 213 P_____O__PP_P_ SH141974 -18.46 116.63 -1 -18.70 116.80 30 50 988 3.50 -18.69 116.80 TC 50 988 -18.46 116.61 2 -18.66 117.12 TC 50 988 12 247
1974 SI WA 21:00:00 TS -18.73 116.38 214 205 P_____P__PP_P_ SH141974 -18.56 116.27 -1 -18.98 116.32 30 50 988 -18.91 116.40 TC 50 988 -18.56 116.25 2 -18.80 116.76 TC 50 988 12 247
1974 SI WA 22:00:00 TS -18.81 116.18 50 988 bom 208 200 P_____O__PP_P_ SH141974 -18.62 116.08 -1 -19.10 116.10 30 50 988 3.50 -19.03 116.20 TC 50 988 -18.61 116.07 2 -18.87 116.57 TC 50 988 11 251
1974 SI WA 1974-01-11 00:00:00 TS -18.92 115.82 212 212 O_____P__OO_O_ jtwc_sh SH141974 -18.70 115.70 -1 -19.19 115.83 30 50 988 -19.20 115.80 TC 50 988 -18.70 115.70 2 -19.00 116.20 TC 50 988 11 255
1974 SI WA 01:00:00 TS -18.94 115.64 50 988 bom 222 212 P_____O__PP_P_ SH141974 -18.73 115.51 -1 -19.20 115.70 30 50 988 3.50 3.50 -19.23 115.61 TC 50 988 -18.73 115.51 2 -19.05 116.02 TC 50 988 11 263
1974 SI WA 03:00:00 TS -18.98 115.25 231 236 P_____P__PP_P_ SH141974 -18.77 115.11 -1 -19.21 115.31 30 50 988 -19.24 115.23 TC 50 988 -18.77 115.11 2 -19.12 115.65 TC 50 988 11 265
1974 SI WA 04:00:00 TS -18.99 115.06 50 988 bom 241 241 P_____O__PP_P_ SH141974 -18.79 114.91 -1 -19.20 115.10 30 50 988 3.50 -19.22 115.05 TC 50 988 -18.78 114.91 2 -19.15 115.47 TC 50 988 11 268
1974 SI WA 06:00:00 TS -19.00 114.67 264 270 O_____P__OP_O_ jtwc_sh SH141974 -18.80 114.50 -1 -19.19 114.69 30 50 988 -19.20 114.70 TC 50 988 -18.80 114.50 2 -19.20 115.10 TC 50 989 11 268
1974 SI WA 07:00:00 TS -19.01 114.47 50 988 bom 276 276 P_____O__PP_P_ SH141974 -18.81 114.29 -1 -19.20 114.50 30 50 988 3.50 -19.22 114.53 TC 49 988 -18.81 114.30 2 -19.23 114.92 TC 49 989 11 266
1974 SI WA 09:00:00 TS -19.04 114.09 300 300 P_____P__PP_P_ SH141974 -18.81 113.88 -1 -19.27 114.16 30 46 989 -19.26 114.19 TC 47 990 -18.81 113.89 2 -19.27 114.55 TC 47 990 11 266
1974 SI WA 10:00:00 TS -19.05 113.91 45 990 bom 314 312 P_____O__PP_P_ SH141974 -18.81 113.68 -1 -19.30 114.00 30 45 990 3.00 -19.28 114.03 TC 46 990 -18.81 113.69 2 -19.29 114.37 TC 46 990 10 268
1974 SI WA 12:00:00 TS -19.05 113.54 317 317 O_____P__OO_O_ jtwc_sh SH141974 -18.80 113.30 -1 -19.31 113.67 30 41 991 -19.30 113.70 TC 45 992 -18.80 113.30 2 -19.30 114.00 TC 45 991 10 270
1974 SI WA 13:00:00 TS -19.05 113.37 40 992 bom 319 319 P_____O__PP_P_ SH141974 -18.80 113.12 -1 -19.30 113.50 30 40 992 3.00 -19.30 113.54 TC 43 992 -18.81 113.12 2 -19.30 113.82 TC 44 991 10 271
1974 SI WA 15:00:00 TS -19.05 113.03 340 340 P_____P__PP_P_ SH141974 -18.81 112.79 -1 -19.31 113.17 30 36 993 -19.27 113.21 TC 40 994 -18.81 112.78 2 -19.27 113.45 TC 42 992 10 271
1974 SI WA 16:00:00 TS -19.04 112.86 35 994 bom 343 343 P_____O__PP_P_ SH141974 -18.81 112.63 -1 -19.30 113.00 30 35 994 3.00 -19.25 113.05 TC 38 994 -18.81 112.61 2 -19.25 113.27 TC 41 992 10 275
1974 SI WA 18:00:00 TS -19.01 112.52 360 360 O_____P__OP_O_ jtwc_sh SH141974 -18.80 112.30 -1 -19.24 112.67 30 31 995 -19.20 112.70 TC 35 996 -18.81 112.27 2 -19.20 112.90 TC 40 993 10 276
1974 SI WA 19:00:00 TS -18.99 112.35 30 996 bom 364 364 P_____O__PP_P_ SH141974 -18.79 112.13 -1 -19.20 112.50 20 30 996 2.50 -19.18 112.52 TC 35 996 -18.80 112.10 2 -19.18 112.72 TC 39 993 10 276
1974 SI WA 21:00:00 TS -18.95 111.99 385 394 P_____P__PP_P_ SH141974 -18.77 111.77 -1 -19.14 112.11 20 30 996 -19.12 112.14 TC 35 996 -18.77 111.76 2 -19.12 112.37 TC 37 994 11 277
1974 SI WA 22:00:00 TS -18.92 111.80 30 997 bom 406 406 P_____O__PP_P_ SH141974 -18.75 111.59 -1 -19.10 111.90 20 30 997 2.50 -19.09 111.93 TC 35 996 -18.76 111.58 2 -19.09 112.19 TC 36 994 11 281
1974 SI WA 1974-01-12 00:00:00 TS -18.85 111.40 440 440 O_____P__OO_O_ jtwc_sh SH141974 -18.70 111.20 -1 -18.97 111.52 20 30 997 -19.00 111.50 TC 35 997 -18.70 111.20 2 -19.00 111.80 TC 35 996 12 282
1974 SI WA 01:00:00 TS -18.80 111.19 30 997 bom 453 453 P_____O__PP_P_ SH141974 -18.66 111.00 -1 -18.90 111.30 20 30 997 2.00 2.50 -18.94 111.26 TC 35 997 -18.67 111.00 2 -18.94 111.59 TC 35 996 13 284
1974 SI WA 03:00:00 TS -18.69 110.73 496 496 P_____P__PP_P_ SH141974 -18.57 110.57 -1 -18.77 110.77 20 30 997 -18.82 110.76 TC 35 997 -18.58 110.58 2 -18.81 111.13 TC 35 996 14 285
1974 SI WA 04:00:00 TS -18.63 110.50 30 997 bom 519 519 P_____O__PP_P_ SH141974 -18.52 110.35 -1 -18.70 110.50 20 30 997 2.50 -18.74 110.51 TC 35 997 -18.53 110.37 2 -18.74 110.89 TC 35 996 14 286
1974 SI WA 06:00:00 TS -18.50 110.03 564 564 O_____P__OP_O_ jtwc_sh SH141974 -18.40 109.90 -1 -18.57 110.03 20 30 997 -18.60 110.00 TC 35 997 -18.42 109.92 2 -18.60 110.40 TC 35 997 14 286
1974 SI WA 07:00:00 TS -18.43 109.79 30 997 bom 587 587 P_____O__PP_P_ SH141974 -18.34 109.68 -1 -18.50 109.80 20 30 997 2.50 -18.54 109.76 TC 34 997 -18.35 109.70 2 -18.53 110.15 TC 35 997 14 286
1974 SI WA 09:00:00 TS -18.31 109.33 634 634 P_____P__PP_P_ SH141974 -18.21 109.22 -1 -18.37 109.34 20 30 997 -18.41 109.30 TC 32 998 -18.22 109.23 2 -18.40 109.65 TC 35 997 14 286
1974 SI WA 10:00:00 TS -18.24 109.09 30 998 bom 658 658 P_____O__PP_P_ SH141974 -18.15 108.99 -1 -18.30 109.10 20 30 998 2.50 -18.35 109.07 TC 31 998 -18.15 108.99 2 -18.33 109.40 TC 35 997 15 287
1974 SI WA 12:00:00 TS -18.10 108.59 706 706 O_____P__OO_O_ jtwc_sh SH141974 -18.00 108.50 -1 -18.17 108.56 20 30 998 -18.20 108.60 TC 30 999 -18.00 108.50 2 -18.20 108.90 TC 35 998 15 287
1974 SI WA 13:00:00 TS -18.02 108.34 30 999 bom 738 738 P_____O__PP_P_ SH141974 -17.92 108.24 -1 -18.10 108.30 20 30 999 2.50 -18.11 108.35 TC 30 999 -17.92 108.23 2 -18.14 108.66 TC 34 998 15 289
1974 SI WA 15:00:00 TS -17.85 107.83 794 794 P_____P__PP_P_ SH141974 -17.76 107.71 -1 -17.91 107.84 20 30 999 -17.90 107.85 TC 30 999 -17.76 107.66 2 -18.01 108.19 TC 32 999 16 289
1974 SI WA 16:00:00 TS -17.76 107.57 30 999 bom 811 811 P_____O__PP_P_ SH141974 -17.67 107.44 -1 -17.80 107.60 20 30 999 2.50 -17.79 107.60 TC 30 999 -17.68 107.38 2 -17.94 107.96 TC 31 999 16 290
1974 SI WA 18:00:00 TS -17.58 107.05 876 876 O_____P__OP_O_ jtwc_sh SH141974 -17.50 106.90 -1 -17.59 107.06 20 26 999 -17.60 107.10 TC 30 1000 -17.50 106.81 2 -17.80 107.50 TC 30 1000 16 289
1974 SI WA 19:00:00 TS -17.50 106.79 25 1000 bom 899 899 P_____O__PP_P_ SH141974 -17.41 106.63 -1 -17.50 106.80 20 25 1000 2.00 -17.52 106.86 TC 29 1000 -17.41 106.54 2 -17.72 107.27 TC 29 1000 16 289
1974 SI WA 21:00:00 TS -17.32 106.26 956 965 P_____P__PP_P_ SH141974 -17.24 106.09 -1 -17.36 106.32 20 25 1000 -17.38 106.39 TC 27 1001 -17.24 106.03 2 -17.56 106.80 TC 27 1000 16 289
1974 SI WA 22:00:00 TS -17.23 105.98 25 1001 bom 989 989 P_____O__PP_P_ SH141974 -17.15 105.84 -1 -17.30 106.10 20 25 1001 2.00 -17.31 106.16 TC 26 1001 -17.16 105.80 2 -17.48 106.57 TC 26 1000 16 290
1974 SI WA 1974-01-13 00:00:00 TS -17.05 105.50 1039 1045 O_____P__OO_O_ jtwc_sh SH141974 -17.00 105.40 -1 -17.17 105.69 20 25 1001 -17.20 105.70 TC 25 1002 -17.00 105.40 2 -17.30 106.10 TC 25 1001 15 291
1974 SI WA 01:00:00 TS -16.95 105.24 25 1002 bom 1072 1063 P_____O___P___ SH141974 -16.94 105.21 -1 -17.10 105.50 20 25 1002 1.50 2.00 TC -16.93 105.23 2 TC 12 292
1974 SI WA 03:00:00 TS -16.83 104.91 1065 1057 P_________P___ SH141974 -16.84 104.90 -1 20 TC -16.81 104.95 2 TC 8 295
1974 SI WA 06:00:00 TS -16.68 104.62 1059 1039 O_________P___ jtwc_sh SH141974 -16.70 104.60 -1 -16.63 104.67 2 5 310
1974 SI WA 09:00:00 TS -16.49 104.49 1039 1017 P_________P___ SH141974 -16.51 104.48 -1 -16.47 104.52 2 4 343
1974 SI WA 12:00:00 TS -16.30 104.50 1017 993 O_________O___ jtwc_sh SH141974 -16.30 104.50 -1 -16.30 104.50 2 4 10
1974 SI WA 15:00:00 TS -16.11 104.56 993 969 P_________P___ SH141974 -16.10 104.55 -1 -16.12 104.58 2 4 28
1974 SI WA 18:00:00 TS -15.91 104.72 969 943 O_________P___ jtwc_sh SH141974 -15.90 104.70 -1 -15.92 104.75 2 5 42
1974 SI WA 21:00:00 TS -15.70 104.94 943 916 P_________P___ SH141974 -15.70 104.93 -1 -15.71 104.96 2 6 49
1974 SI WA 1974-01-14 00:00:00 TS -15.50 105.20 916 O_________O___ jtwc_sh SH141974 -15.50 105.20 -1 -15.50 105.20 2 7 51